sensor_id;sensor_type;location;lat;lon;timestamp;P1;durP1;ratioP1;P2;durP2;ratioP2
36253;SDS011;22291;52.250;21.228;2022-09-25T00:00:49;75.62;;;42.65;;
36253;SDS011;22291;52.250;21.228;2022-09-25T00:03:22;79.25;;;42.20;;
36253;SDS011;22291;52.250;21.228;2022-09-25T00:05:51;80.62;;;44.20;;
36253;SDS011;22291;52.250;21.228;2022-09-25T00:08:20;87.02;;;43.45;;
36253;SDS011;22291;52.250;21.228;2022-09-25T00:10:48;82.78;;;42.27;;
36253;SDS011;22291;52.250;21.228;2022-09-25T00:13:17;76.50;;;42.05;;
36253;SDS011;22291;52.250;21.228;2022-09-25T00:15:46;84.95;;;44.75;;
36253;SDS011;22291;52.250;21.228;2022-09-25T00:18:19;82.65;;;43.75;;
36253;SDS011;22291;52.250;21.228;2022-09-25T00:21:06;88.78;;;43.75;;
36253;SDS011;22291;52.250;21.228;2022-09-25T00:23:37;82.42;;;43.73;;
36253;SDS011;22291;52.250;21.228;2022-09-25T00:26:04;83.47;;;45.05;;
36253;SDS011;22291;52.250;21.228;2022-09-25T00:28:37;80.17;;;42.23;;
36253;SDS011;22291;52.250;21.228;2022-09-25T00:31:02;56.18;;;29.75;;
36253;SDS011;22291;52.250;21.228;2022-09-25T00:33:31;83.33;;;43.17;;
36253;SDS011;22291;52.250;21.228;2022-09-25T00:36:03;79.72;;;44.30;;
36253;SDS011;22291;52.250;21.228;2022-09-25T00:38:32;85.72;;;43.33;;
36253;SDS011;22291;52.250;21.228;2022-09-25T00:41:01;88.45;;;44.77;;
36253;SDS011;22291;52.250;21.228;2022-09-25T00:43:49;82.55;;;43.13;;
36253;SDS011;22291;52.250;21.228;2022-09-25T00:54:16;80.92;;;44.08;;
36253;SDS011;22291;52.250;21.228;2022-09-25T00:56:52;84.10;;;45.52;;
36253;SDS011;22291;52.250;21.228;2022-09-25T00:59:23;92.37;;;46.33;;
36253;SDS011;22291;52.250;21.228;2022-09-25T01:01:53;87.65;;;45.50;;
36253;SDS011;22291;52.250;21.228;2022-09-25T01:04:20;84.40;;;43.85;;
36253;SDS011;22291;52.250;21.228;2022-09-25T01:06:50;86.72;;;43.80;;
36253;SDS011;22291;52.250;21.228;2022-09-25T01:09:16;67.40;;;34.83;;
36253;SDS011;22291;52.250;21.228;2022-09-25T01:11:43;79.55;;;41.25;;
36253;SDS011;22291;52.250;21.228;2022-09-25T01:14:10;78.25;;;42.95;;
36253;SDS011;22291;52.250;21.228;2022-09-25T01:16:53;82.85;;;44.67;;
36253;SDS011;22291;52.250;21.228;2022-09-25T01:19:33;75.17;;;42.00;;
36253;SDS011;22291;52.250;21.228;2022-09-25T01:30:40;76.65;;;38.95;;
36253;SDS011;22291;52.250;21.228;2022-09-25T01:33:10;71.37;;;38.40;;
36253;SDS011;22291;52.250;21.228;2022-09-25T01:38:30;71.55;;;38.45;;
36253;SDS011;22291;52.250;21.228;2022-09-25T01:43:45;71.90;;;38.13;;
36253;SDS011;22291;52.250;21.228;2022-09-25T01:46:33;71.72;;;38.73;;
36253;SDS011;22291;52.250;21.228;2022-09-25T01:49:06;78.67;;;44.18;;
36253;SDS011;22291;52.250;21.228;2022-09-25T01:51:53;67.50;;;36.42;;
36253;SDS011;22291;52.250;21.228;2022-09-25T01:54:23;63.95;;;35.60;;
36253;SDS011;22291;52.250;21.228;2022-09-25T01:56:54;64.60;;;34.90;;
36253;SDS011;22291;52.250;21.228;2022-09-25T02:02:40;58.80;;;33.67;;
36253;SDS011;22291;52.250;21.228;2022-09-25T02:05:12;65.92;;;35.25;;
36253;SDS011;22291;52.250;21.228;2022-09-25T02:07:40;57.17;;;31.55;;
36253;SDS011;22291;52.250;21.228;2022-09-25T02:10:21;60.95;;;33.40;;
36253;SDS011;22291;52.250;21.228;2022-09-25T02:12:54;64.77;;;33.98;;
36253;SDS011;22291;52.250;21.228;2022-09-25T02:15:28;57.13;;;31.82;;
36253;SDS011;22291;52.250;21.228;2022-09-25T02:18:00;59.18;;;32.60;;
36253;SDS011;22291;52.250;21.228;2022-09-25T02:20:50;59.77;;;33.23;;
36253;SDS011;22291;52.250;21.228;2022-09-25T02:23:24;60.25;;;32.63;;
36253;SDS011;22291;52.250;21.228;2022-09-25T02:26:07;57.55;;;31.70;;
36253;SDS011;22291;52.250;21.228;2022-09-25T02:28:39;58.35;;;30.68;;
36253;SDS011;22291;52.250;21.228;2022-09-25T02:31:10;56.02;;;31.68;;
36253;SDS011;22291;52.250;21.228;2022-09-25T02:33:38;60.03;;;34.03;;
36253;SDS011;22291;52.250;21.228;2022-09-25T02:36:05;59.58;;;33.38;;
36253;SDS011;22291;52.250;21.228;2022-09-25T02:38:32;65.15;;;34.55;;
36253;SDS011;22291;52.250;21.228;2022-09-25T03:01:11;64.85;;;40.15;;
36253;SDS011;22291;52.250;21.228;2022-09-25T03:03:40;81.90;;;52.80;;
36253;SDS011;22291;52.250;21.228;2022-09-25T03:06:10;76.77;;;49.70;;
36253;SDS011;22291;52.250;21.228;2022-09-25T03:08:38;67.80;;;40.38;;
36253;SDS011;22291;52.250;21.228;2022-09-25T03:11:10;61.53;;;33.53;;
36253;SDS011;22291;52.250;21.228;2022-09-25T03:13:40;57.05;;;32.00;;
36253;SDS011;22291;52.250;21.228;2022-09-25T03:19:13;58.45;;;31.12;;
36253;SDS011;22291;52.250;21.228;2022-09-25T03:21:40;58.83;;;29.42;;
36253;SDS011;22291;52.250;21.228;2022-09-25T03:24:08;58.10;;;30.75;;
36253;SDS011;22291;52.250;21.228;2022-09-25T03:26:34;51.05;;;29.07;;
36253;SDS011;22291;52.250;21.228;2022-09-25T03:29:00;58.78;;;29.12;;
36253;SDS011;22291;52.250;21.228;2022-09-25T03:31:27;48.45;;;28.25;;
36253;SDS011;22291;52.250;21.228;2022-09-25T03:33:54;47.55;;;27.22;;
36253;SDS011;22291;52.250;21.228;2022-09-25T03:36:22;53.98;;;30.95;;
36253;SDS011;22291;52.250;21.228;2022-09-25T03:38:55;53.95;;;32.05;;
36253;SDS011;22291;52.250;21.228;2022-09-25T03:41:24;53.35;;;30.88;;
36253;SDS011;22291;52.250;21.228;2022-09-25T03:43:53;53.78;;;29.92;;
36253;SDS011;22291;52.250;21.228;2022-09-25T03:46:22;48.85;;;29.12;;
36253;SDS011;22291;52.250;21.228;2022-09-25T03:48:54;47.60;;;27.98;;
36253;SDS011;22291;52.250;21.228;2022-09-25T03:51:21;57.20;;;30.12;;
36253;SDS011;22291;52.250;21.228;2022-09-25T03:53:49;54.67;;;30.45;;
36253;SDS011;22291;52.250;21.228;2022-09-25T03:56:18;65.97;;;38.42;;
36253;SDS011;22291;52.250;21.228;2022-09-25T03:58:48;84.42;;;45.98;;
36253;SDS011;22291;52.250;21.228;2022-09-25T04:01:16;72.45;;;42.13;;
36253;SDS011;22291;52.250;21.228;2022-09-25T04:03:46;55.95;;;33.50;;
36253;SDS011;22291;52.250;21.228;2022-09-25T04:06:14;55.80;;;29.57;;
36253;SDS011;22291;52.250;21.228;2022-09-25T04:08:48;55.73;;;30.35;;
36253;SDS011;22291;52.250;21.228;2022-09-25T04:11:16;60.58;;;32.10;;
36253;SDS011;22291;52.250;21.228;2022-09-25T04:13:45;69.22;;;36.13;;
36253;SDS011;22291;52.250;21.228;2022-09-25T04:16:12;83.62;;;46.08;;
36253;SDS011;22291;52.250;21.228;2022-09-25T04:18:41;77.85;;;42.93;;
36253;SDS011;22291;52.250;21.228;2022-09-25T04:21:08;88.67;;;45.90;;
36253;SDS011;22291;52.250;21.228;2022-09-25T04:26:04;143.57;;;79.40;;
36253;SDS011;22291;52.250;21.228;2022-09-25T04:28:30;110.42;;;59.25;;
36253;SDS011;22291;52.250;21.228;2022-09-25T04:30:57;71.20;;;39.13;;
36253;SDS011;22291;52.250;21.228;2022-09-25T04:33:24;70.70;;;35.20;;
36253;SDS011;22291;52.250;21.228;2022-09-25T04:36:09;84.85;;;46.63;;
36253;SDS011;22291;52.250;21.228;2022-09-25T04:38:36;79.10;;;41.95;;
36253;SDS011;22291;52.250;21.228;2022-09-25T04:41:03;59.30;;;32.03;;
36253;SDS011;22291;52.250;21.228;2022-09-25T04:43:30;68.87;;;37.20;;
36253;SDS011;22291;52.250;21.228;2022-09-25T04:46:06;78.20;;;41.77;;
36253;SDS011;22291;52.250;21.228;2022-09-25T04:48:33;85.45;;;47.35;;
36253;SDS011;22291;52.250;21.228;2022-09-25T04:51:00;79.58;;;45.03;;
36253;SDS011;22291;52.250;21.228;2022-09-25T04:53:27;72.30;;;38.23;;
36253;SDS011;22291;52.250;21.228;2022-09-25T04:55:59;64.92;;;35.80;;
36253;SDS011;22291;52.250;21.228;2022-09-25T04:58:27;104.35;;;51.70;;
36253;SDS011;22291;52.250;21.228;2022-09-25T05:00:54;78.17;;;40.70;;
36253;SDS011;22291;52.250;21.228;2022-09-25T05:03:20;77.40;;;39.65;;
36253;SDS011;22291;52.250;21.228;2022-09-25T05:05:47;68.22;;;36.68;;
36253;SDS011;22291;52.250;21.228;2022-09-25T05:08:14;56.58;;;33.58;;
36253;SDS011;22291;52.250;21.228;2022-09-25T05:10:40;71.65;;;40.80;;
36253;SDS011;22291;52.250;21.228;2022-09-25T05:13:09;66.72;;;36.25;;
36253;SDS011;22291;52.250;21.228;2022-09-25T05:15:36;52.75;;;31.40;;
36253;SDS011;22291;52.250;21.228;2022-09-25T05:20:34;55.75;;;30.20;;
36253;SDS011;22291;52.250;21.228;2022-09-25T05:23:00;50.35;;;26.57;;
36253;SDS011;22291;52.250;21.228;2022-09-25T05:25:29;45.52;;;26.87;;
36253;SDS011;22291;52.250;21.228;2022-09-25T05:27:56;44.35;;;26.40;;
36253;SDS011;22291;52.250;21.228;2022-09-25T05:30:25;45.93;;;25.20;;
36253;SDS011;22291;52.250;21.228;2022-09-25T05:32:55;40.20;;;24.92;;
36253;SDS011;22291;52.250;21.228;2022-09-25T05:35:25;43.58;;;24.70;;
36253;SDS011;22291;52.250;21.228;2022-09-25T05:37:55;41.70;;;25.85;;
36253;SDS011;22291;52.250;21.228;2022-09-25T05:40:22;49.15;;;28.90;;
36253;SDS011;22291;52.250;21.228;2022-09-25T05:42:50;44.58;;;25.17;;
36253;SDS011;22291;52.250;21.228;2022-09-25T05:45:18;39.03;;;23.77;;
36253;SDS011;22291;52.250;21.228;2022-09-25T05:47:46;44.33;;;24.15;;
36253;SDS011;22291;52.250;21.228;2022-09-25T05:50:13;50.33;;;25.68;;
36253;SDS011;22291;52.250;21.228;2022-09-25T05:52:41;48.08;;;26.57;;
36253;SDS011;22291;52.250;21.228;2022-09-25T05:55:09;42.75;;;26.45;;
36253;SDS011;22291;52.250;21.228;2022-09-25T05:57:36;41.58;;;25.15;;
36253;SDS011;22291;52.250;21.228;2022-09-25T06:00:04;44.38;;;26.12;;
36253;SDS011;22291;52.250;21.228;2022-09-25T06:02:34;37.50;;;23.32;;
36253;SDS011;22291;52.250;21.228;2022-09-25T06:05:00;42.23;;;24.18;;
36253;SDS011;22291;52.250;21.228;2022-09-25T06:07:27;36.75;;;24.00;;
36253;SDS011;22291;52.250;21.228;2022-09-25T06:09:54;32.67;;;20.80;;
36253;SDS011;22291;52.250;21.228;2022-09-25T06:12:21;39.92;;;23.73;;
36253;SDS011;22291;52.250;21.228;2022-09-25T06:14:49;49.38;;;29.45;;
36253;SDS011;22291;52.250;21.228;2022-09-25T06:17:17;46.42;;;28.67;;
36253;SDS011;22291;52.250;21.228;2022-09-25T06:19:44;32.67;;;20.43;;
36253;SDS011;22291;52.250;21.228;2022-09-25T06:22:11;27.98;;;17.73;;
36253;SDS011;22291;52.250;21.228;2022-09-25T06:24:37;34.48;;;19.70;;
36253;SDS011;22291;52.250;21.228;2022-09-25T06:27:07;30.65;;;19.48;;
36253;SDS011;22291;52.250;21.228;2022-09-25T06:32:00;33.95;;;22.02;;
36253;SDS011;22291;52.250;21.228;2022-09-25T06:34:28;34.10;;;19.90;;
36253;SDS011;22291;52.250;21.228;2022-09-25T06:36:54;30.92;;;20.32;;
36253;SDS011;22291;52.250;21.228;2022-09-25T06:39:20;31.17;;;20.85;;
36253;SDS011;22291;52.250;21.228;2022-09-25T06:41:46;34.38;;;22.45;;
36253;SDS011;22291;52.250;21.228;2022-09-25T06:44:12;30.35;;;19.48;;
36253;SDS011;22291;52.250;21.228;2022-09-25T06:46:38;36.98;;;20.90;;
36253;SDS011;22291;52.250;21.228;2022-09-25T06:49:06;33.73;;;21.25;;
36253;SDS011;22291;52.250;21.228;2022-09-25T06:51:33;27.93;;;17.95;;
36253;SDS011;22291;52.250;21.228;2022-09-25T06:54:00;24.75;;;15.93;;
36253;SDS011;22291;52.250;21.228;2022-09-25T06:56:27;26.97;;;16.65;;
36253;SDS011;22291;52.250;21.228;2022-09-25T06:58:55;26.55;;;16.23;;
36253;SDS011;22291;52.250;21.228;2022-09-25T07:01:21;23.30;;;15.35;;
36253;SDS011;22291;52.250;21.228;2022-09-25T07:03:47;22.48;;;14.93;;
36253;SDS011;22291;52.250;21.228;2022-09-25T07:08:48;24.55;;;15.80;;
36253;SDS011;22291;52.250;21.228;2022-09-25T07:11:21;22.90;;;14.73;;
36253;SDS011;22291;52.250;21.228;2022-09-25T07:13:47;21.73;;;14.20;;
36253;SDS011;22291;52.250;21.228;2022-09-25T07:18:44;22.67;;;13.75;;
36253;SDS011;22291;52.250;21.228;2022-09-25T07:21:16;22.27;;;14.93;;
36253;SDS011;22291;52.250;21.228;2022-09-25T07:23:42;23.83;;;15.88;;
36253;SDS011;22291;52.250;21.228;2022-09-25T07:26:14;22.10;;;16.10;;
36253;SDS011;22291;52.250;21.228;2022-09-25T07:28:53;24.37;;;17.20;;
36253;SDS011;22291;52.250;21.228;2022-09-25T07:31:24;20.88;;;14.78;;
36253;SDS011;22291;52.250;21.228;2022-09-25T07:33:54;20.85;;;15.08;;
36253;SDS011;22291;52.250;21.228;2022-09-25T07:38:50;21.65;;;14.65;;
36253;SDS011;22291;52.250;21.228;2022-09-25T07:41:18;22.75;;;15.85;;
36253;SDS011;22291;52.250;21.228;2022-09-25T07:43:50;21.27;;;14.35;;
36253;SDS011;22291;52.250;21.228;2022-09-25T07:46:23;18.42;;;14.05;;
36253;SDS011;22291;52.250;21.228;2022-09-25T07:48:51;19.10;;;15.28;;
36253;SDS011;22291;52.250;21.228;2022-09-25T07:51:19;16.02;;;11.70;;
36253;SDS011;22291;52.250;21.228;2022-09-25T07:53:46;18.75;;;12.23;;
36253;SDS011;22291;52.250;21.228;2022-09-25T07:56:13;15.15;;;12.28;;
36253;SDS011;22291;52.250;21.228;2022-09-25T07:58:41;15.20;;;11.97;;
36253;SDS011;22291;52.250;21.228;2022-09-25T08:01:10;14.58;;;10.98;;
36253;SDS011;22291;52.250;21.228;2022-09-25T08:03:38;15.65;;;11.65;;
36253;SDS011;22291;52.250;21.228;2022-09-25T08:06:05;12.47;;;10.68;;
36253;SDS011;22291;52.250;21.228;2022-09-25T08:08:36;47.65;;;29.20;;
36253;SDS011;22291;52.250;21.228;2022-09-25T08:11:07;17.15;;;12.23;;
36253;SDS011;22291;52.250;21.228;2022-09-25T08:13:37;13.03;;;9.53;;
36253;SDS011;22291;52.250;21.228;2022-09-25T08:16:06;13.30;;;9.53;;
36253;SDS011;22291;52.250;21.228;2022-09-25T08:18:38;10.75;;;9.53;;
36253;SDS011;22291;52.250;21.228;2022-09-25T08:21:06;13.05;;;8.88;;
36253;SDS011;22291;52.250;21.228;2022-09-25T08:23:35;11.85;;;8.55;;
36253;SDS011;22291;52.250;21.228;2022-09-25T08:26:01;11.38;;;9.03;;
36253;SDS011;22291;52.250;21.228;2022-09-25T08:28:27;12.10;;;9.03;;
36253;SDS011;22291;52.250;21.228;2022-09-25T08:30:56;11.30;;;8.68;;
36253;SDS011;22291;52.250;21.228;2022-09-25T08:33:24;11.68;;;8.60;;
36253;SDS011;22291;52.250;21.228;2022-09-25T08:35:58;12.90;;;9.25;;
36253;SDS011;22291;52.250;21.228;2022-09-25T08:38:28;11.15;;;9.23;;
36253;SDS011;22291;52.250;21.228;2022-09-25T08:41:04;9.53;;;8.53;;
36253;SDS011;22291;52.250;21.228;2022-09-25T08:43:57;9.60;;;7.50;;
36253;SDS011;22291;52.250;21.228;2022-09-25T08:46:51;9.13;;;7.70;;
36253;SDS011;22291;52.250;21.228;2022-09-25T08:49:23;12.47;;;8.28;;
36253;SDS011;22291;52.250;21.228;2022-09-25T08:51:54;9.80;;;7.95;;
36253;SDS011;22291;52.250;21.228;2022-09-25T08:54:25;9.00;;;8.03;;
36253;SDS011;22291;52.250;21.228;2022-09-25T08:56:57;13.78;;;8.13;;
36253;SDS011;22291;52.250;21.228;2022-09-25T09:00:00;8.88;;;7.17;;
36253;SDS011;22291;52.250;21.228;2022-09-25T09:02:36;9.23;;;7.65;;
36253;SDS011;22291;52.250;21.228;2022-09-25T09:05:06;9.55;;;7.97;;
36253;SDS011;22291;52.250;21.228;2022-09-25T09:07:42;9.40;;;7.78;;
36253;SDS011;22291;52.250;21.228;2022-09-25T09:10:24;11.57;;;7.70;;
36253;SDS011;22291;52.250;21.228;2022-09-25T09:15:56;8.45;;;7.28;;
36253;SDS011;22291;52.250;21.228;2022-09-25T09:18:49;9.35;;;6.90;;
36253;SDS011;22291;52.250;21.228;2022-09-25T09:53:09;6.30;;;5.53;;
36253;SDS011;22291;52.250;21.228;2022-09-25T09:55:35;7.25;;;5.55;;
36253;SDS011;22291;52.250;21.228;2022-09-25T09:58:16;6.60;;;5.70;;
36253;SDS011;22291;52.250;21.228;2022-09-25T10:00:47;8.30;;;5.72;;
36253;SDS011;22291;52.250;21.228;2022-09-25T10:03:19;8.25;;;5.40;;
36253;SDS011;22291;52.250;21.228;2022-09-25T10:05:49;6.17;;;4.90;;
36253;SDS011;22291;52.250;21.228;2022-09-25T10:08:23;6.65;;;5.53;;
36253;SDS011;22291;52.250;21.228;2022-09-25T10:10:50;8.78;;;4.95;;
36253;SDS011;22291;52.250;21.228;2022-09-25T10:13:19;8.38;;;4.62;;
36253;SDS011;22291;52.250;21.228;2022-09-25T10:15:58;4.95;;;4.45;;
36253;SDS011;22291;52.250;21.228;2022-09-25T10:26:30;9.10;;;7.47;;
36253;SDS011;22291;52.250;21.228;2022-09-25T10:29:03;7.20;;;6.10;;
36253;SDS011;22291;52.250;21.228;2022-09-25T10:31:37;8.15;;;6.45;;
36253;SDS011;22291;52.250;21.228;2022-09-25T10:34:26;5.15;;;4.30;;
36253;SDS011;22291;52.250;21.228;2022-09-25T10:36:49;5.25;;;3.87;;
36253;SDS011;22291;52.250;21.228;2022-09-25T10:39:24;4.87;;;4.20;;
36253;SDS011;22291;52.250;21.228;2022-09-25T10:42:00;5.37;;;4.12;;
36253;SDS011;22291;52.250;21.228;2022-09-25T10:44:36;5.60;;;4.60;;
36253;SDS011;22291;52.250;21.228;2022-09-25T10:50:13;6.42;;;4.58;;
36253;SDS011;22291;52.250;21.228;2022-09-25T10:52:53;4.60;;;4.20;;
36253;SDS011;22291;52.250;21.228;2022-09-25T10:55:30;4.92;;;4.35;;
36253;SDS011;22291;52.250;21.228;2022-09-25T10:58:05;4.35;;;3.95;;
36253;SDS011;22291;52.250;21.228;2022-09-25T11:03:21;7.62;;;3.95;;
36253;SDS011;22291;52.250;21.228;2022-09-25T11:06:03;4.35;;;3.95;;
36253;SDS011;22291;52.250;21.228;2022-09-25T11:08:37;4.83;;;4.30;;
36253;SDS011;22291;52.250;21.228;2022-09-25T11:11:05;4.78;;;4.25;;
36253;SDS011;22291;52.250;21.228;2022-09-25T11:16:11;4.30;;;3.90;;
36253;SDS011;22291;52.250;21.228;2022-09-25T11:26:51;6.67;;;5.00;;
36253;SDS011;22291;52.250;21.228;2022-09-25T11:29:36;4.85;;;4.35;;
36253;SDS011;22291;52.250;21.228;2022-09-25T11:35:24;6.08;;;4.12;;
36253;SDS011;22291;52.250;21.228;2022-09-25T11:41:28;7.92;;;4.33;;
36253;SDS011;22291;52.250;21.228;2022-09-25T11:49:50;5.58;;;4.60;;
36253;SDS011;22291;52.250;21.228;2022-09-25T12:01:18;8.70;;;6.70;;
36253;SDS011;22291;52.250;21.228;2022-09-25T12:15:39;7.25;;;6.08;;
36253;SDS011;22291;52.250;21.228;2022-09-25T12:27:11;6.53;;;5.62;;
36253;SDS011;22291;52.250;21.228;2022-09-25T12:30:12;7.17;;;6.30;;
36253;SDS011;22291;52.250;21.228;2022-09-25T12:35:57;7.08;;;6.37;;
36253;SDS011;22291;52.250;21.228;2022-09-25T12:38:53;6.87;;;5.78;;
36253;SDS011;22291;52.250;21.228;2022-09-25T12:41:42;7.83;;;5.95;;
36253;SDS011;22291;52.250;21.228;2022-09-25T12:44:13;9.45;;;6.35;;
36253;SDS011;22291;52.250;21.228;2022-09-25T12:46:53;9.60;;;6.30;;
36253;SDS011;22291;52.250;21.228;2022-09-25T12:49:28;7.72;;;5.67;;
36253;SDS011;22291;52.250;21.228;2022-09-25T12:52:33;7.45;;;5.80;;
36253;SDS011;22291;52.250;21.228;2022-09-25T12:55:01;41.68;;;16.82;;
36253;SDS011;22291;52.250;21.228;2022-09-25T13:00:27;19.07;;;12.20;;
36253;SDS011;22291;52.250;21.228;2022-09-25T13:05:57;10.88;;;7.60;;
36253;SDS011;22291;52.250;21.228;2022-09-25T13:08:39;9.15;;;7.00;;
36253;SDS011;22291;52.250;21.228;2022-09-25T13:11:38;9.85;;;6.65;;
36253;SDS011;22291;52.250;21.228;2022-09-25T13:14:23;8.55;;;5.90;;
36253;SDS011;22291;52.250;21.228;2022-09-25T13:16:59;10.05;;;7.62;;
36253;SDS011;22291;52.250;21.228;2022-09-25T13:19:26;8.63;;;5.95;;
36253;SDS011;22291;52.250;21.228;2022-09-25T13:22:01;6.33;;;5.58;;
36253;SDS011;22291;52.250;21.228;2022-09-25T13:27:19;6.87;;;5.25;;
36253;SDS011;22291;52.250;21.228;2022-09-25T13:29:55;7.17;;;5.42;;
36253;SDS011;22291;52.250;21.228;2022-09-25T13:32:30;6.62;;;5.55;;
36253;SDS011;22291;52.250;21.228;2022-09-25T13:35:03;5.87;;;5.08;;
36253;SDS011;22291;52.250;21.228;2022-09-25T13:37:35;5.72;;;4.50;;
36253;SDS011;22291;52.250;21.228;2022-09-25T13:40:46;6.45;;;5.47;;
36253;SDS011;22291;52.250;21.228;2022-09-25T13:43:20;6.87;;;5.50;;
36253;SDS011;22291;52.250;21.228;2022-09-25T13:48:51;7.75;;;5.28;;
36253;SDS011;22291;52.250;21.228;2022-09-25T13:54:01;9.73;;;8.25;;
36253;SDS011;22291;52.250;21.228;2022-09-25T13:59:18;9.98;;;7.12;;
36253;SDS011;22291;52.250;21.228;2022-09-25T14:01:49;7.42;;;6.22;;
36253;SDS011;22291;52.250;21.228;2022-09-25T14:07:15;8.88;;;5.95;;
36253;SDS011;22291;52.250;21.228;2022-09-25T14:09:49;7.05;;;5.95;;
36253;SDS011;22291;52.250;21.228;2022-09-25T14:12:26;8.70;;;6.22;;
36253;SDS011;22291;52.250;21.228;2022-09-25T14:15:03;8.23;;;6.15;;
36253;SDS011;22291;52.250;21.228;2022-09-25T14:17:35;7.60;;;6.17;;
36253;SDS011;22291;52.250;21.228;2022-09-25T14:20:03;7.67;;;6.47;;
36253;SDS011;22291;52.250;21.228;2022-09-25T14:22:40;10.88;;;8.15;;
36253;SDS011;22291;52.250;21.228;2022-09-25T14:25:25;9.20;;;7.30;;
36253;SDS011;22291;52.250;21.228;2022-09-25T14:27:56;9.95;;;7.78;;
36253;SDS011;22291;52.250;21.228;2022-09-25T14:30:27;10.38;;;7.58;;
36253;SDS011;22291;52.250;21.228;2022-09-25T14:33:08;9.15;;;7.72;;
36253;SDS011;22291;52.250;21.228;2022-09-25T14:35:58;13.43;;;9.03;;
36253;SDS011;22291;52.250;21.228;2022-09-25T14:38:32;13.25;;;9.43;;
36253;SDS011;22291;52.250;21.228;2022-09-25T14:41:14;11.78;;;9.48;;
36253;SDS011;22291;52.250;21.228;2022-09-25T14:44:01;12.85;;;8.43;;
36253;SDS011;22291;52.250;21.228;2022-09-25T14:46:46;12.45;;;9.33;;
36253;SDS011;22291;52.250;21.228;2022-09-25T14:49:33;10.45;;;7.87;;
36253;SDS011;22291;52.250;21.228;2022-09-25T14:54:24;9.78;;;7.62;;
36253;SDS011;22291;52.250;21.228;2022-09-25T14:56:55;7.80;;;6.42;;
36253;SDS011;22291;52.250;21.228;2022-09-25T14:59:29;12.10;;;8.23;;
36253;SDS011;22291;52.250;21.228;2022-09-25T15:02:49;9.25;;;7.75;;
36253;SDS011;22291;52.250;21.228;2022-09-25T15:04:43;19.17;;;12.95;;
36253;SDS011;22291;52.250;21.228;2022-09-25T15:07:21;15.78;;;11.35;;
36253;SDS011;22291;52.250;21.228;2022-09-25T15:09:51;32.23;;;25.12;;
36253;SDS011;22291;52.250;21.228;2022-09-25T15:12:27;102.65;;;65.35;;
36253;SDS011;22291;52.250;21.228;2022-09-25T15:15:02;20.52;;;13.30;;
36253;SDS011;22291;52.250;21.228;2022-09-25T15:17:33;14.18;;;9.45;;
36253;SDS011;22291;52.250;21.228;2022-09-25T15:20:05;14.55;;;9.13;;
36253;SDS011;22291;52.250;21.228;2022-09-25T15:22:36;12.03;;;8.50;;
36253;SDS011;22291;52.250;21.228;2022-09-25T15:25:05;11.10;;;8.50;;
36253;SDS011;22291;52.250;21.228;2022-09-25T15:30:04;14.40;;;9.18;;
36253;SDS011;22291;52.250;21.228;2022-09-25T15:32:37;10.28;;;8.50;;
36253;SDS011;22291;52.250;21.228;2022-09-25T15:38:00;17.25;;;13.80;;
36253;SDS011;22291;52.250;21.228;2022-09-25T15:40:30;19.30;;;14.55;;
36253;SDS011;22291;52.250;21.228;2022-09-25T15:42:56;13.93;;;12.23;;
36253;SDS011;22291;52.250;21.228;2022-09-25T15:48:24;12.60;;;9.85;;
36253;SDS011;22291;52.250;21.228;2022-09-25T15:51:04;12.80;;;8.98;;
36253;SDS011;22291;52.250;21.228;2022-09-25T15:53:40;13.43;;;9.80;;
36253;SDS011;22291;52.250;21.228;2022-09-25T15:56:22;12.18;;;10.03;;
36253;SDS011;22291;52.250;21.228;2022-09-25T15:59:00;11.55;;;9.85;;
36253;SDS011;22291;52.250;21.228;2022-09-25T16:01:30;12.65;;;10.10;;
36253;SDS011;22291;52.250;21.228;2022-09-25T16:04:21;12.70;;;10.60;;
36253;SDS011;22291;52.250;21.228;2022-09-25T16:07:29;13.68;;;9.75;;
36253;SDS011;22291;52.250;21.228;2022-09-25T16:12:46;15.95;;;11.10;;
36253;SDS011;22291;52.250;21.228;2022-09-25T16:17:57;15.83;;;11.35;;
36253;SDS011;22291;52.250;21.228;2022-09-25T16:20:35;44.53;;;28.47;;
36253;SDS011;22291;52.250;21.228;2022-09-25T16:23:03;17.00;;;13.43;;
36253;SDS011;22291;52.250;21.228;2022-09-25T16:25:42;13.15;;;10.82;;
36253;SDS011;22291;52.250;21.228;2022-09-25T16:28:12;28.30;;;24.27;;
36253;SDS011;22291;52.250;21.228;2022-09-25T16:30:48;17.67;;;14.25;;
36253;SDS011;22291;52.250;21.228;2022-09-25T16:33:22;16.35;;;12.47;;
36253;SDS011;22291;52.250;21.228;2022-09-25T16:35:58;16.93;;;11.83;;
36253;SDS011;22291;52.250;21.228;2022-09-25T16:38:27;14.80;;;10.88;;
36253;SDS011;22291;52.250;21.228;2022-09-25T16:49:31;35.03;;;26.90;;
36253;SDS011;22291;52.250;21.228;2022-09-25T16:51:58;25.17;;;20.80;;
36253;SDS011;22291;52.250;21.228;2022-09-25T16:54:29;23.15;;;16.75;;
36253;SDS011;22291;52.250;21.228;2022-09-25T16:56:57;24.02;;;19.12;;
36253;SDS011;22291;52.250;21.228;2022-09-25T16:59:26;24.05;;;18.85;;
36253;SDS011;22291;52.250;21.228;2022-09-25T17:01:58;26.80;;;20.37;;
36253;SDS011;22291;52.250;21.228;2022-09-25T17:04:28;20.92;;;16.90;;
36253;SDS011;22291;52.250;21.228;2022-09-25T17:06:56;24.30;;;17.55;;
36253;SDS011;22291;52.250;21.228;2022-09-25T17:09:24;29.52;;;19.92;;
36253;SDS011;22291;52.250;21.228;2022-09-25T17:11:56;43.50;;;23.15;;
36253;SDS011;22291;52.250;21.228;2022-09-25T17:14:25;59.42;;;36.35;;
36253;SDS011;22291;52.250;21.228;2022-09-25T17:16:55;44.15;;;28.17;;
36253;SDS011;22291;52.250;21.228;2022-09-25T17:19:22;27.93;;;19.75;;
36253;SDS011;22291;52.250;21.228;2022-09-25T17:21:50;35.03;;;22.90;;
36253;SDS011;22291;52.250;21.228;2022-09-25T17:24:23;37.15;;;21.70;;
36253;SDS011;22291;52.250;21.228;2022-09-25T17:26:52;32.80;;;21.02;;
36253;SDS011;22291;52.250;21.228;2022-09-25T17:29:19;33.78;;;23.77;;
36253;SDS011;22291;52.250;21.228;2022-09-25T17:31:46;34.92;;;23.02;;
36253;SDS011;22291;52.250;21.228;2022-09-25T17:34:17;32.70;;;21.27;;
36253;SDS011;22291;52.250;21.228;2022-09-25T17:36:48;24.37;;;16.82;;
36253;SDS011;22291;52.250;21.228;2022-09-25T17:39:15;21.20;;;16.20;;
36253;SDS011;22291;52.250;21.228;2022-09-25T17:41:42;23.87;;;18.02;;
36253;SDS011;22291;52.250;21.228;2022-09-25T17:44:10;30.48;;;18.73;;
36253;SDS011;22291;52.250;21.228;2022-09-25T17:46:42;26.65;;;19.65;;
36253;SDS011;22291;52.250;21.228;2022-09-25T17:49:09;29.00;;;18.75;;
36253;SDS011;22291;52.250;21.228;2022-09-25T17:51:35;33.90;;;22.95;;
36253;SDS011;22291;52.250;21.228;2022-09-25T17:54:02;32.65;;;22.17;;
36253;SDS011;22291;52.250;21.228;2022-09-25T17:56:31;45.08;;;30.80;;
36253;SDS011;22291;52.250;21.228;2022-09-25T17:59:02;48.25;;;32.53;;
36253;SDS011;22291;52.250;21.228;2022-09-25T18:01:30;49.15;;;34.95;;
36253;SDS011;22291;52.250;21.228;2022-09-25T18:03:59;48.63;;;34.23;;
36253;SDS011;22291;52.250;21.228;2022-09-25T18:06:28;48.20;;;34.80;;
36253;SDS011;22291;52.250;21.228;2022-09-25T18:08:55;49.13;;;35.60;;
36253;SDS011;22291;52.250;21.228;2022-09-25T18:11:22;66.17;;;42.98;;
36253;SDS011;22291;52.250;21.228;2022-09-25T18:13:51;51.30;;;35.88;;
36253;SDS011;22291;52.250;21.228;2022-09-25T18:16:19;60.75;;;41.08;;